TimeMST,TemperatureF,Dew PointF,Humidity,Sea Level PressureIn,VisibilityMPH,Wind Direction,Wind SpeedMPH,Gust SpeedMPH,PrecipitationIn,Events,Conditions,WindDirDegrees,DateUTC
12:56 AM,10.9,8.1,88,30.18,-9999.0,WSW,5.8,-,N/A,,Unknown,240,2013-01-15 07:56:00
1:56 AM,8.1,3.9,83,30.20,-9999.0,West,5.8,-,N/A,,Unknown,270,2013-01-15 08:56:00
2:56 AM,6.1,1.0,80,30.22,-9999.0,West,5.8,-,N/A,,Unknown,280,2013-01-15 09:56:00
3:56 AM,7.0,1.9,80,30.22,-9999.0,WNW,5.8,-,N/A,,Unknown,290,2013-01-15 10:56:00
4:56 AM,7.0,1.9,80,30.22,-9999.0,NW,9.2,-,N/A,,Unknown,310,2013-01-15 11:56:00
5:56 AM,8.1,3.0,80,30.22,-9999.0,NW,10.4,-,N/A,,Unknown,310,2013-01-15 12:56:00
6:56 AM,8.1,3.0,80,30.22,-9999.0,NNW,10.4,-,N/A,,Unknown,330,2013-01-15 13:56:00
7:56 AM,10.9,7.0,84,30.23,-9999.0,NNW,16.1,-,N/A,,Unknown,330,2013-01-15 14:56:00
8:56 AM,16.0,10.9,81,30.24,-9999.0,NNW,13.8,-,N/A,,Unknown,330,2013-01-15 15:56:00
9:56 AM,19.0,12.0,74,30.24,-9999.0,NNW,17.3,20.7,N/A,,Unknown,340,2013-01-15 16:56:00
10:56 AM,21.9,12.9,68,30.22,-9999.0,NNW,17.3,-,N/A,,Unknown,340,2013-01-15 17:56:00
11:56 AM,26.1,12.9,58,30.19,-9999.0,NNW,13.8,-,N/A,,Unknown,340,2013-01-15 18:56:00
12:56 PM,28.9,12.0,49,30.17,-9999.0,North,11.5,-,N/A,,Unknown,10,2013-01-15 19:56:00
1:56 PM,30.9,5.0,33,30.17,-9999.0,North,15.0,-,N/A,,Unknown,360,2013-01-15 20:56:00
2:56 PM,30.9,1.9,29,30.19,-9999.0,North,9.2,-,N/A,,Unknown,10,2013-01-15 21:56:00
3:56 PM,30.0,-0.0,28,30.20,-9999.0,North,9.2,-,N/A,,Unknown,360,2013-01-15 22:56:00
4:56 PM,28.0,1.0,31,30.22,-9999.0,North,8.1,-,N/A,,Unknown,360,2013-01-15 23:56:00
5:56 PM,21.9,3.0,44,30.23,-9999.0,WNW,3.5,-,N/A,,Unknown,290,2013-01-16 00:56:00
6:56 PM,17.1,6.1,62,30.26,-9999.0,WNW,3.5,-,N/A,,Unknown,290,2013-01-16 01:56:00
7:56 PM,21.9,7.0,53,30.23,-9999.0,NW,9.2,-,N/A,,Unknown,310,2013-01-16 02:56:00
8:56 PM,19.9,7.0,57,30.22,-9999.0,WNW,8.1,-,N/A,,Unknown,300,2013-01-16 03:56:00
9:56 PM,19.0,6.1,57,30.20,-9999.0,WNW,11.5,-,N/A,,Unknown,300,2013-01-16 04:56:00
10:56 PM,19.9,6.1,55,30.19,-9999.0,WNW,6.9,-,N/A,,Unknown,300,2013-01-16 05:56:00
11:56 PM,23.0,8.1,53,30.16,-9999.0,NW,11.5,-,N/A,,Unknown,320,2013-01-16 06:56:00